Time;durP1;ratioP1;P1;durP2;ratioP2;P2;SDS_P1;SDS_P2;PMS_P1;PMS_P2;Temp;Humidity;BMP_temperature;BMP_pressure;BME280_temperature;BME280_humidity;BME280_pressure;Samples;Min_cycle;Max_cycle;Signal;HPM_P1;HPM_P2
2021/09/18 00:01:24;;;;;;;10.35;3.95;;;14.30;99.90;;;;;;5032134;28;20374;-63
2021/09/18 00:03:50;;;;;;;8.85;4.07;;;14.30;99.90;;;;;;5031702;28;20040;-63
2021/09/18 00:06:16;;;;;;;6.55;3.55;;;14.20;99.90;;;;;;5032112;28;20049;-62
2021/09/18 00:08:41;;;;;;;6.68;3.80;;;14.20;99.90;;;;;;5029980;28;20034;-63
2021/09/18 00:11:07;;;;;;;9.35;4.07;;;14.20;99.90;;;;;;5031581;28;20041;-63
2021/09/18 00:13:33;;;;;;;8.55;4.03;;;14.20;99.90;;;;;;5032006;28;20041;-62
2021/09/18 00:15:59;;;;;;;8.98;3.83;;;14.30;99.90;;;;;;5031420;28;20037;-61
2021/09/18 00:18:25;;;;;;;6.93;3.63;;;14.30;99.90;;;;;;5031814;28;20041;-63
2021/09/18 00:20:51;;;;;;;7.53;3.58;;;14.30;99.90;;;;;;5029797;28;20064;-61
2021/09/18 00:23:16;;;;;;;7.10;3.75;;;14.40;99.90;;;;;;5032049;28;20308;-62
2021/09/18 00:25:42;;;;;;;8.65;3.80;;;14.40;99.90;;;;;;5029631;28;20066;-63
2021/09/18 00:28:08;;;;;;;13.50;3.97;;;14.40;99.90;;;;;;5031453;28;20239;-62
2021/09/18 00:30:33;;;;;;;6.32;3.28;;;14.40;99.90;;;;;;5031672;28;20042;-62
2021/09/18 00:33:02;;;;;;;8.68;3.35;;;14.40;99.90;;;;;;5031444;28;20053;-61
2021/09/18 00:35:27;;;;;;;8.85;3.50;;;14.40;99.90;;;;;;5031832;28;20052;-63
2021/09/18 00:37:53;;;;;;;5.88;3.22;;;14.40;99.90;;;;;;5031086;28;20037;-61
2021/09/18 00:40:19;;;;;;;7.70;3.55;;;14.30;99.90;;;;;;5031069;28;20069;-61
2021/09/18 00:42:44;;;;;;;7.85;3.42;;;14.30;99.90;;;;;;5030963;28;20501;-63
2021/09/18 00:45:10;;;;;;;6.07;3.33;;;14.30;99.90;;;;;;5031576;28;20084;-62
2021/09/18 00:47:36;;;;;;;8.15;3.80;;;14.20;99.90;;;;;;5031285;28;20041;-62
2021/09/18 00:50:04;;;;;;;8.10;3.67;;;14.20;99.90;;;;;;5029234;28;20111;-62
2021/09/18 00:52:30;;;;;;;8.32;3.75;;;14.20;99.90;;;;;;5031606;28;20438;-63
2021/09/18 00:54:56;;;;;;;9.73;4.13;;;14.10;99.90;;;;;;5030862;28;20124;-62
2021/09/18 00:57:23;;;;;;;6.65;3.72;;;14.00;99.90;;;;;;5031524;28;20040;-62
2021/09/18 00:59:48;;;;;;;12.10;3.72;;;14.00;99.90;;;;;;5031278;28;20034;-62
2021/09/18 01:02:14;;;;;;;7.15;3.53;;;14.00;99.90;;;;;;5032203;28;20084;-62
2021/09/18 01:04:40;;;;;;;7.28;3.45;;;14.00;99.90;;;;;;5033324;28;20030;-62
2021/09/18 01:07:06;;;;;;;7.80;3.95;;;13.90;99.90;;;;;;5038522;28;20029;-61
2021/09/18 01:09:32;;;;;;;9.82;3.85;;;13.90;99.90;;;;;;5039655;28;20033;-62
2021/09/18 01:11:59;;;;;;;9.40;3.05;;;13.90;99.90;;;;;;5040402;28;20140;-62
2021/09/18 01:14:25;;;;;;;6.10;3.35;;;13.90;99.90;;;;;;5036230;28;20484;-62
2021/09/18 01:16:51;;;;;;;6.68;3.25;;;13.90;99.90;;;;;;5032164;28;20029;-63
2021/09/18 01:19:17;;;;;;;6.55;3.50;;;13.90;99.90;;;;;;5030570;28;20079;-62
2021/09/18 01:21:48;;;;;;;6.18;3.42;;;13.80;99.90;;;;;;5030381;28;20120;-63
2021/09/18 01:24:13;;;;;;;8.77;3.40;;;13.80;99.90;;;;;;5030173;28;20068;-62
2021/09/18 01:26:39;;;;;;;8.18;3.40;;;13.70;99.90;;;;;;5030295;28;20049;-62
2021/09/18 01:29:06;;;;;;;7.65;3.42;;;13.70;99.90;;;;;;5029913;28;20032;-62
2021/09/18 01:31:41;;;;;;;7.03;3.60;;;13.70;99.90;;;;;;5030406;28;20250;-62
2021/09/18 01:34:06;;;;;;;6.63;3.10;;;13.60;99.90;;;;;;5028454;28;20086;-62
2021/09/18 01:36:33;;;;;;;6.45;3.15;;;13.60;99.90;;;;;;5029821;28;20025;-63
2021/09/18 01:38:59;;;;;;;7.68;3.17;;;13.60;99.90;;;;;;5029596;28;20496;-62
2021/09/18 01:41:33;;;;;;;7.93;2.85;;;13.60;99.90;;;;;;5028454;28;20118;-63
2021/09/18 01:44:00;;;;;;;10.68;3.78;;;13.60;99.90;;;;;;5028097;28;20036;-63
2021/09/18 01:46:26;;;;;;;8.75;3.17;;;13.60;99.90;;;;;;5029970;28;20052;-62
2021/09/18 01:48:52;;;;;;;8.23;4.00;;;13.50;99.90;;;;;;5029417;28;20029;-61
2021/09/18 01:51:18;;;;;;;7.28;3.33;;;13.50;99.90;;;;;;5029253;28;20060;-63
2021/09/18 01:53:44;;;;;;;7.57;3.60;;;13.50;99.90;;;;;;5029223;28;20405;-63
2021/09/18 01:56:10;;;;;;;7.43;3.72;;;13.40;99.90;;;;;;5029325;28;20489;-63
2021/09/18 01:58:36;;;;;;;9.18;3.42;;;13.40;99.90;;;;;;5029483;28;20048;-63
2021/09/18 02:01:03;;;;;;;7.03;3.33;;;13.40;99.90;;;;;;5028731;28;20036;-61
2021/09/18 02:03:30;;;;;;;6.55;2.80;;;13.40;99.90;;;;;;5028288;28;20095;-61
2021/09/18 02:05:56;;;;;;;5.50;3.70;;;13.30;99.90;;;;;;5029284;28;20037;-62
2021/09/18 02:08:23;;;;;;;7.60;3.80;;;13.30;99.90;;;;;;5028395;28;20195;-61
2021/09/18 02:10:50;;;;;;;6.45;3.38;;;13.40;99.90;;;;;;5027877;28;20041;-62
2021/09/18 02:13:16;;;;;;;7.65;4.00;;;13.30;99.90;;;;;;5024845;28;20037;-63
2021/09/18 02:15:42;;;;;;;7.63;3.63;;;13.30;99.90;;;;;;5027974;28;20036;-62
2021/09/18 02:18:09;;;;;;;9.25;4.10;;;13.30;99.90;;;;;;5028446;28;20096;-63
2021/09/18 02:20:36;;;;;;;7.13;3.50;;;13.30;99.90;;;;;;5029204;28;20817;-62
2021/09/18 02:23:03;;;;;;;5.70;3.50;;;13.30;99.90;;;;;;5028721;28;20110;-62
2021/09/18 02:25:29;;;;;;;9.07;3.63;;;13.30;99.90;;;;;;5029119;28;20030;-63
2021/09/18 02:27:55;;;;;;;7.40;4.45;;;13.30;99.90;;;;;;5028878;28;20043;-63
2021/09/18 02:30:32;;;;;;;7.22;3.85;;;13.20;99.90;;;;;;5027002;28;20042;-62
2021/09/18 02:32:58;;;;;;;7.60;3.75;;;13.20;99.90;;;;;;5028906;28;20037;-62
2021/09/18 02:35:26;;;;;;;7.90;4.30;;;13.20;99.90;;;;;;5028445;28;20080;-62
2021/09/18 02:37:53;;;;;;;9.95;5.07;;;13.20;99.90;;;;;;5028801;28;20037;-63
2021/09/18 02:40:20;;;;;;;8.65;4.20;;;13.20;99.90;;;;;;5026563;28;20056;-62
2021/09/18 02:42:51;;;;;;;10.27;4.65;;;13.20;99.90;;;;;;5028794;28;20116;-61
2021/09/18 02:45:18;;;;;;;8.73;4.20;;;13.20;99.90;;;;;;5024534;28;20099;-61
2021/09/18 02:47:46;;;;;;;10.52;4.82;;;13.20;99.90;;;;;;5028641;28;20052;-63
2021/09/18 02:50:14;;;;;;;12.25;4.63;;;13.10;99.90;;;;;;5027962;28;20037;-63
2021/09/18 02:52:40;;;;;;;15.00;5.25;;;13.10;99.90;;;;;;5028432;28;20032;-63
2021/09/18 02:55:07;;;;;;;10.75;5.13;;;13.10;99.90;;;;;;5028778;28;20029;-63
2021/09/18 02:57:34;;;;;;;12.02;6.03;;;13.10;99.90;;;;;;5028168;28;20501;-63
2021/09/18 02:59:59;;;;;;;10.05;5.53;;;13.20;99.90;;;;;;5026667;28;20149;-63
2021/09/18 03:02:25;;;;;;;10.52;4.82;;;13.20;99.90;;;;;;5028141;28;20043;-63
2021/09/18 03:04:50;;;;;;;11.45;5.28;;;13.20;99.90;;;;;;5027790;28;20033;-63
2021/09/18 03:07:16;;;;;;;12.05;5.28;;;13.20;99.90;;;;;;5028153;28;20037;-61
2021/09/18 03:09:42;;;;;;;8.40;4.50;;;13.20;99.90;;;;;;5024200;28;20029;-63
2021/09/18 03:12:07;;;;;;;11.43;4.60;;;13.10;99.90;;;;;;5026259;28;20033;-61
2021/09/18 03:14:33;;;;;;;11.13;5.03;;;13.10;99.90;;;;;;5027692;28;20036;-63
2021/09/18 03:16:59;;;;;;;11.57;4.93;;;13.10;99.90;;;;;;5028243;28;20032;-62
2021/09/18 03:19:25;;;;;;;10.13;4.85;;;13.10;99.90;;;;;;5027613;28;20033;-62
2021/09/18 03:21:50;;;;;;;12.57;4.60;;;13.10;99.90;;;;;;5028126;28;20099;-62
2021/09/18 03:24:16;;;;;;;11.68;5.50;;;13.00;99.90;;;;;;5028309;28;20455;-62
2021/09/18 03:26:43;;;;;;;10.80;4.53;;;13.00;99.90;;;;;;5026009;28;20095;-62
2021/09/18 03:29:11;;;;;;;8.25;4.40;;;13.00;99.90;;;;;;5027781;28;20060;-63
2021/09/18 03:31:38;;;;;;;11.98;4.80;;;13.00;99.90;;;;;;5027566;28;20485;-63
2021/09/18 03:34:04;;;;;;;14.85;5.57;;;13.00;99.90;;;;;;5028028;28;20048;-62
2021/09/18 03:36:29;;;;;;;11.80;5.60;;;13.10;99.90;;;;;;5027739;28;20136;-62
2021/09/18 03:38:55;;;;;;;8.85;4.68;;;13.10;99.90;;;;;;5027467;28;20080;-62
2021/09/18 03:41:20;;;;;;;9.68;4.68;;;13.10;99.90;;;;;;5027270;28;20088;-67
2021/09/18 03:43:46;;;;;;;9.70;4.90;;;13.10;99.90;;;;;;5026209;28;20099;-62
2021/09/18 03:46:12;;;;;;;13.88;5.30;;;13.10;99.90;;;;;;5028086;28;20029;-63
2021/09/18 03:48:37;;;;;;;17.48;5.32;;;13.10;99.90;;;;;;5025977;28;20449;-63
2021/09/18 03:51:03;;;;;;;13.93;5.03;;;13.10;99.90;;;;;;5027939;28;20495;-61
2021/09/18 03:53:31;;;;;;;9.50;5.25;;;13.10;99.90;;;;;;5027472;28;20037;-61
2021/09/18 03:55:57;;;;;;;9.77;4.72;;;13.10;99.90;;;;;;5027955;28;20033;-63
2021/09/18 03:58:23;;;;;;;14.38;5.15;;;13.10;99.90;;;;;;5027647;28;20041;-62
2021/09/18 04:00:48;;;;;;;9.65;4.57;;;13.10;99.90;;;;;;5027388;28;20500;-62
2021/09/18 04:03:14;;;;;;;8.52;4.75;;;13.00;99.90;;;;;;5026484;28;20037;-63
2021/09/18 04:05:39;;;;;;;7.82;4.25;;;13.00;99.90;;;;;;5026226;28;20413;-62
2021/09/18 04:08:07;;;;;;;12.13;5.28;;;13.00;99.90;;;;;;5027965;28;20121;-62
2021/09/18 04:10:33;;;;;;;9.45;4.95;;;13.00;99.90;;;;;;5026891;28;20191;-62
2021/09/18 04:12:59;;;;;;;11.50;4.65;;;13.00;99.90;;;;;;5026478;28;20536;-62
2021/09/18 04:15:24;;;;;;;10.20;5.70;;;12.90;99.90;;;;;;5028363;28;20513;-62
2021/09/18 04:17:52;;;;;;;13.48;5.28;;;12.90;99.90;;;;;;5030978;28;20493;-62
2021/09/18 04:20:18;;;;;;;10.63;4.95;;;13.00;99.90;;;;;;5029711;28;20037;-62
2021/09/18 04:22:43;;;;;;;10.23;4.97;;;13.00;99.90;;;;;;5031344;28;20087;-62
2021/09/18 04:25:09;;;;;;;7.22;4.18;;;13.00;99.90;;;;;;5031101;28;20400;-62
2021/09/18 04:27:35;;;;;;;10.77;4.72;;;12.90;99.90;;;;;;5029423;28;20037;-63
2021/09/18 04:30:01;;;;;;;9.10;3.80;;;13.00;99.90;;;;;;5030842;28;20034;-63
2021/09/18 04:32:26;;;;;;;10.05;4.72;;;13.00;99.90;;;;;;5031126;28;20044;-62
2021/09/18 04:34:52;;;;;;;8.60;4.72;;;13.00;99.90;;;;;;5030660;28;20021;-62
2021/09/18 04:37:18;;;;;;;9.80;4.72;;;13.00;99.90;;;;;;5031207;28;20061;-62
2021/09/18 04:39:43;;;;;;;10.65;4.38;;;13.00;99.90;;;;;;5030141;28;20115;-62
2021/09/18 04:42:09;;;;;;;8.30;4.30;;;13.00;99.90;;;;;;5055636;23;20044;-68
2021/09/18 04:44:34;;;;;;;8.70;4.22;;;13.00;99.90;;;;;;5050556;28;20447;-68
2021/09/18 04:47:00;;;;;;;8.20;4.22;;;13.00;99.90;;;;;;5050938;28;20116;-68
2021/09/18 04:49:27;;;;;;;8.15;3.35;;;13.00;99.90;;;;;;5052097;28;20091;-67
2021/09/18 04:51:52;;;;;;;8.35;4.18;;;12.90;99.90;;;;;;5038209;28;20037;-68
2021/09/18 04:54:18;;;;;;;8.13;4.38;;;12.90;99.90;;;;;;5031127;28;20057;-68
2021/09/18 04:56:44;;;;;;;8.73;4.32;;;12.90;99.90;;;;;;5031115;28;20091;-68
2021/09/18 04:59:09;;;;;;;7.70;4.28;;;12.90;99.90;;;;;;5031654;28;20034;-68
2021/09/18 05:01:35;;;;;;;10.20;4.40;;;12.90;99.90;;;;;;5027310;28;20041;-68
2021/09/18 05:04:00;;;;;;;8.63;4.38;;;12.90;99.90;;;;;;5030973;28;20376;-68
2021/09/18 05:06:26;;;;;;;10.07;4.85;;;12.90;99.90;;;;;;5028165;28;20810;-68
2021/09/18 05:08:52;;;;;;;11.90;4.80;;;12.90;99.90;;;;;;5028853;28;20043;-68
2021/09/18 05:11:17;;;;;;;9.57;3.80;;;12.90;99.90;;;;;;5031049;28;20157;-68
2021/09/18 05:13:43;;;;;;;9.77;4.28;;;12.90;99.90;;;;;;5030712;28;20400;-68
2021/09/18 05:16:09;;;;;;;9.20;4.30;;;12.90;99.90;;;;;;5029713;28;20116;-68
2021/09/18 05:18:34;;;;;;;8.38;4.30;;;12.90;99.90;;;;;;5026765;28;20037;-68
2021/09/18 05:21:00;;;;;;;9.77;4.55;;;12.90;99.90;;;;;;5030054;28;20418;-68
2021/09/18 05:23:25;;;;;;;11.73;4.40;;;13.00;99.90;;;;;;5030785;28;20065;-69
2021/09/18 05:25:51;;;;;;;9.32;3.90;;;13.00;99.90;;;;;;5030280;28;20026;-68
2021/09/18 05:28:17;;;;;;;8.18;3.67;;;13.00;99.90;;;;;;5029744;28;20137;-68
2021/09/18 05:30:42;;;;;;;8.50;3.60;;;12.90;99.90;;;;;;5030491;28;20036;-68
2021/09/18 05:33:08;;;;;;;10.20;4.30;;;13.00;99.90;;;;;;5030383;28;20037;-68
2021/09/18 05:35:34;;;;;;;12.18;3.45;;;13.00;99.90;;;;;;5029077;28;20029;-69
2021/09/18 05:38:00;;;;;;;8.88;3.58;;;13.00;99.90;;;;;;5029474;28;20051;-68
2021/09/18 05:40:26;;;;;;;7.70;3.72;;;13.00;99.90;;;;;;5028741;28;20041;-68
2021/09/18 05:42:53;;;;;;;7.28;3.85;;;13.00;99.90;;;;;;5028110;28;20090;-68
2021/09/18 05:45:19;;;;;;;7.35;3.08;;;13.00;99.90;;;;;;5030063;28;20030;-68
2021/09/18 05:47:44;;;;;;;9.52;3.80;;;13.10;99.90;;;;;;5030268;28;20038;-68
2021/09/18 05:50:10;;;;;;;8.75;3.78;;;13.10;99.90;;;;;;5029120;28;20472;-68
2021/09/18 05:52:36;;;;;;;8.07;3.42;;;13.10;99.90;;;;;;5029495;28;20409;-69
2021/09/18 05:55:02;;;;;;;9.50;4.03;;;13.20;99.90;;;;;;5029415;28;20033;-69
2021/09/18 05:57:28;;;;;;;5.43;3.08;;;13.30;99.90;;;;;;5029838;28;20091;-69
2021/09/18 05:59:53;;;;;;;8.18;4.28;;;13.30;99.90;;;;;;5034980;28;20037;-71
2021/09/18 06:02:19;;;;;;;7.10;3.30;;;13.30;99.90;;;;;;5032264;28;20510;-71
2021/09/18 06:04:45;;;;;;;12.20;3.72;;;13.50;99.90;;;;;;5034034;28;20038;-71
2021/09/18 06:07:10;;;;;;;6.20;3.53;;;13.60;99.90;;;;;;5034575;28;20033;-71
2021/09/18 06:09:36;;;;;;;7.18;3.30;;;13.60;99.90;;;;;;5034048;28;20098;-71
2021/09/18 06:12:02;;;;;;;7.25;3.25;;;13.70;99.90;;;;;;5028654;28;20033;-71
2021/09/18 06:14:27;;;;;;;9.60;3.17;;;13.80;99.90;;;;;;5034225;28;20029;-71
2021/09/18 06:16:53;;;;;;;17.48;4.38;;;13.90;99.90;;;;;;5036760;28;20029;-71
2021/09/18 06:19:19;;;;;;;7.80;3.15;;;14.00;99.90;;;;;;5033187;28;20393;-71
2021/09/18 06:21:47;;;;;;;7.88;3.10;;;14.10;99.90;;;;;;5033521;28;20124;-70
2021/09/18 06:24:14;;;;;;;11.00;3.75;;;14.20;99.90;;;;;;5034089;28;20452;-68
2021/09/18 06:26:41;;;;;;;9.57;3.90;;;14.20;99.90;;;;;;5033413;28;20128;-71
2021/09/18 06:29:07;;;;;;;9.48;3.47;;;14.30;99.90;;;;;;5031413;28;20041;-69
2021/09/18 06:31:33;;;;;;;6.07;3.30;;;14.40;99.90;;;;;;5033801;28;20405;-71
2021/09/18 06:33:59;;;;;;;6.57;3.38;;;14.50;99.90;;;;;;5034601;28;20030;-69
2021/09/18 06:36:25;;;;;;;7.75;3.63;;;14.50;99.90;;;;;;5030679;28;20048;-69
2021/09/18 06:38:50;;;;;;;8.80;3.47;;;14.60;99.90;;;;;;5027132;28;20033;-69
2021/09/18 06:41:16;;;;;;;12.50;3.83;;;14.70;99.90;;;;;;5028250;28;20439;-68
2021/09/18 06:43:42;;;;;;;8.50;3.55;;;14.70;99.90;;;;;;5028783;28;20673;-69
2021/09/18 06:46:08;;;;;;;8.75;3.85;;;14.80;99.90;;;;;;5026663;28;20365;-69
2021/09/18 06:48:33;;;;;;;7.47;3.63;;;14.90;99.90;;;;;;5028772;28;20060;-69
2021/09/18 06:50:59;;;;;;;8.48;4.28;;;14.90;99.90;;;;;;5024176;28;20068;-69
2021/09/18 06:53:25;;;;;;;7.75;3.45;;;15.00;99.90;;;;;;5028227;28;20033;-68
2021/09/18 06:55:50;;;;;;;9.70;3.33;;;15.00;99.90;;;;;;5019434;28;20072;-69
2021/09/18 06:58:16;;;;;;;13.07;4.32;;;15.10;99.90;;;;;;5025815;28;20040;-68
2021/09/18 07:00:42;;;;;;;10.55;4.18;;;15.20;99.90;;;;;;5025326;28;20682;-69
2021/09/18 07:03:07;;;;;;;8.18;3.97;;;15.30;99.90;;;;;;5023765;28;20306;-68
2021/09/18 07:05:34;;;;;;;8.02;3.90;;;15.40;99.90;;;;;;5026200;28;20433;-71
2021/09/18 07:08:00;;;;;;;5.82;3.22;;;15.40;99.90;;;;;;5023745;28;20550;-71
2021/09/18 07:10:25;;;;;;;8.25;4.35;;;15.50;99.90;;;;;;5021253;28;20033;-71
2021/09/18 07:12:51;;;;;;;7.95;3.85;;;15.60;99.90;;;;;;5023344;28;20034;-71
2021/09/18 07:15:17;;;;;;;10.25;4.13;;;15.70;99.90;;;;;;5025435;28;20116;-71
2021/09/18 07:17:43;;;;;;;10.70;4.47;;;15.70;99.90;;;;;;5023621;28;20489;-71
2021/09/18 07:20:10;;;;;;;10.02;3.90;;;15.70;99.90;;;;;;5022440;28;20040;-71
2021/09/18 07:22:35;;;;;;;11.75;4.70;;;15.80;99.90;;;;;;5024262;28;20044;-71
2021/09/18 07:25:01;;;;;;;9.85;4.68;;;15.80;99.90;;;;;;5023796;28;20025;-71
2021/09/18 07:27:27;;;;;;;13.52;4.88;;;15.80;99.90;;;;;;5021130;28;20033;-71
2021/09/18 07:29:53;;;;;;;9.63;4.15;;;15.80;99.90;;;;;;5024608;28;20040;-71
2021/09/18 07:32:19;;;;;;;11.68;4.50;;;15.80;99.90;;;;;;5022682;28;20516;-70
2021/09/18 07:34:45;;;;;;;7.70;4.38;;;15.80;99.90;;;;;;5028099;28;20056;-71
2021/09/18 07:37:11;;;;;;;9.95;4.72;;;15.80;99.90;;;;;;5024385;28;20045;-71
2021/09/18 07:39:36;;;;;;;8.20;4.50;;;15.80;99.90;;;;;;5024283;28;20076;-71
2021/09/18 07:42:03;;;;;;;8.25;3.72;;;15.90;99.90;;;;;;5024613;28;20591;-71
2021/09/18 07:44:29;;;;;;;11.15;4.80;;;16.10;99.90;;;;;;5023207;28;20106;-69
2021/09/18 07:46:54;;;;;;;10.48;4.82;;;16.30;99.90;;;;;;5026046;28;20437;-69
2021/09/18 07:49:20;;;;;;;11.35;4.80;;;16.40;99.90;;;;;;5023591;28;20052;-70
2021/09/18 07:51:46;;;;;;;14.05;4.53;;;16.60;99.90;;;;;;5028249;28;20045;-70
2021/09/18 07:54:12;;;;;;;8.32;4.00;;;16.80;99.90;;;;;;5030825;28;20038;-71
2021/09/18 07:56:38;;;;;;;9.27;4.53;;;16.90;99.90;;;;;;5026004;28;20037;-71
2021/09/18 07:59:04;;;;;;;10.48;4.43;;;17.10;99.90;;;;;;5032121;28;20037;-70
2021/09/18 08:01:30;;;;;;;7.47;4.65;;;17.20;99.90;;;;;;5030558;28;20041;-70
2021/09/18 08:04:03;;;;;;;9.20;3.78;;;17.30;99.90;;;;;;5026288;28;20030;-68
2021/09/18 08:06:33;;;;;;;8.40;3.78;;;17.50;99.90;;;;;;5028046;28;20026;-69
2021/09/18 08:09:04;;;;;;;10.45;5.15;;;17.70;99.90;;;;;;5026904;28;20034;-70
2021/09/18 08:11:30;;;;;;;7.00;3.70;;;17.90;99.90;;;;;;5031305;28;20119;-69
2021/09/18 08:13:57;;;;;;;8.05;4.10;;;18.10;99.90;;;;;;5030367;28;20078;-69
2021/09/18 08:16:23;;;;;;;10.70;3.80;;;18.30;99.90;;;;;;5031114;28;20660;-68
2021/09/18 08:18:49;;;;;;;8.02;3.30;;;18.40;99.90;;;;;;5031322;28;20131;-69
2021/09/18 08:21:16;;;;;;;6.60;3.47;;;18.50;99.90;;;;;;5031606;28;20041;-70
2021/09/18 08:23:41;;;;;;;7.18;3.42;;;18.50;99.90;;;;;;5031067;28;20709;-69
2021/09/18 08:26:08;;;;;;;10.88;3.60;;;18.70;99.90;;;;;;5031769;28;20127;-70
2021/09/18 08:28:35;;;;;;;10.40;3.35;;;18.80;99.90;;;;;;5031097;28;20400;-69
2021/09/18 08:31:00;;;;;;;6.05;2.88;;;19.00;99.90;;;;;;5031249;28;20048;-69
2021/09/18 08:33:26;;;;;;;7.85;3.30;;;19.10;99.90;;;;;;5031027;28;20034;-70
2021/09/18 08:35:52;;;;;;;6.97;3.45;;;19.20;99.90;;;;;;5031405;28;20029;-69
2021/09/18 08:38:18;;;;;;;9.05;4.28;;;19.30;99.90;;;;;;5031222;28;20045;-70
2021/09/18 08:40:44;;;;;;;7.18;3.60;;;19.30;99.90;;;;;;5029689;28;20408;-69
2021/09/18 08:43:10;;;;;;;6.82;3.72;;;19.40;99.90;;;;;;5031560;28;20146;-70
2021/09/18 08:45:36;;;;;;;10.23;4.55;;;19.30;99.90;;;;;;5029757;28;20049;-70
2021/09/18 08:48:05;;;;;;;6.97;3.75;;;19.30;99.90;;;;;;5031396;28;20117;-70
2021/09/18 08:50:32;;;;;;;9.10;4.10;;;19.30;99.90;;;;;;5030717;28;20041;-69
2021/09/18 08:52:58;;;;;;;7.15;3.55;;;19.30;99.90;;;;;;5031909;28;20549;-69
2021/09/18 08:55:24;;;;;;;11.18;4.85;;;19.40;99.90;;;;;;5033373;28;20033;-69
2021/09/18 08:57:50;;;;;;;9.98;4.18;;;19.60;99.90;;;;;;5030791;28;20481;-69
2021/09/18 09:00:32;;;;;;;6.97;3.70;;;19.80;99.90;;;;;;5029496;28;20044;-69
2021/09/18 09:03:00;;;;;;;11.63;4.07;;;19.90;99.90;;;;;;5026097;28;20045;-69
2021/09/18 09:05:27;;;;;;;9.35;3.83;;;20.00;99.90;;;;;;5029673;28;20045;-69
2021/09/18 09:08:05;;;;;;;8.60;3.75;;;20.10;99.90;;;;;;5026530;28;20049;-69
2021/09/18 09:10:31;;;;;;;8.85;4.57;;;20.20;99.90;;;;;;5026712;28;20064;-70
2021/09/18 09:13:08;;;;;;;9.23;4.88;;;20.30;99.90;;;;;;5030397;28;20033;-70
2021/09/18 09:15:34;;;;;;;11.68;5.03;;;20.30;99.90;;;;;;5031094;28;20113;-67
2021/09/18 09:18:27;;;;;;;9.95;4.22;;;20.50;99.90;;;;;;5030175;28;20049;-68
2021/09/18 09:21:08;;;;;;;8.25;4.07;;;20.50;99.90;;;;;;5026886;28;20025;-70
2021/09/18 09:23:33;;;;;;;7.85;4.10;;;20.60;99.90;;;;;;5026880;28;20037;-70
2021/09/18 09:25:59;;;;;;;7.30;3.97;;;20.50;99.90;;;;;;5027502;28;20042;-70
2021/09/18 09:28:25;;;;;;;8.90;4.35;;;20.60;99.90;;;;;;5027622;28;20045;-70
2021/09/18 09:30:53;;;;;;;9.10;4.72;;;20.60;99.90;;;;;;5030182;28;20095;-70
2021/09/18 09:33:19;;;;;;;6.45;3.20;;;20.70;99.90;;;;;;5030287;28;20539;-70
2021/09/18 09:35:45;;;;;;;8.45;3.03;;;20.70;99.90;;;;;;5029684;28;20037;-70
2021/09/18 09:38:11;;;;;;;7.95;3.28;;;20.90;99.90;;;;;;5028486;28;20556;-70
2021/09/18 09:40:40;;;;;;;8.25;3.28;;;20.90;99.90;;;;;;5029892;28;20030;-71
2021/09/18 09:43:08;;;;;;;4.97;2.58;;;20.90;99.90;;;;;;5029648;28;20119;-70
2021/09/18 09:45:35;;;;;;;4.53;2.40;;;21.00;99.90;;;;;;5029977;28;20038;-70
2021/09/18 09:48:13;;;;;;;5.97;2.97;;;21.00;99.90;;;;;;5028202;28;20045;-70
2021/09/18 09:50:42;;;;;;;4.68;2.15;;;21.10;99.90;;;;;;5029946;28;20128;-69
2021/09/18 09:53:27;;;;;;;5.32;2.17;;;21.10;99.90;;;;;;5029554;28;20037;-69
2021/09/18 09:55:53;;;;;;;3.47;1.80;;;21.10;99.90;;;;;;5025118;28;20034;-71
2021/09/18 09:58:19;;;;;;;3.90;2.00;;;21.10;99.90;;;;;;5025372;28;20033;-71
2021/09/18 10:00:50;;;;;;;3.22;1.70;;;21.10;99.90;;;;;;5018664;28;20123;-72
2021/09/18 10:03:19;;;;;;;3.42;1.85;;;21.20;99.90;;;;;;5024999;28;20113;-70
2021/09/18 10:05:45;;;;;;;3.55;2.00;;;21.30;99.90;;;;;;5025809;28;20099;-73
2021/09/18 10:08:12;;;;;;;7.55;2.17;;;21.30;99.90;;;;;;5023670;28;20485;-71
2021/09/18 10:10:40;;;;;;;3.88;1.83;;;21.40;99.90;;;;;;5026518;28;20033;-69
2021/09/18 10:13:08;;;;;;;2.95;1.73;;;21.50;99.90;;;;;;5028214;28;20029;-72
2021/09/18 10:15:34;;;;;;;3.65;1.60;;;21.60;99.90;;;;;;5028185;28;20061;-69
2021/09/18 10:18:02;;;;;;;5.00;1.45;;;21.60;99.90;;;;;;5028787;28;20558;-69
2021/09/18 10:23:14;;;;;;;2.95;1.83;;;21.70;99.90;;;;;;5018010;28;20068;-69
2021/09/18 10:25:44;;;;;;;2.35;1.20;;;21.70;99.90;;;;;;5024064;28;20066;-69
2021/09/18 10:28:13;;;;;;;3.75;1.10;;;21.70;99.90;;;;;;5026549;28;20039;-69
2021/09/18 10:30:40;;;;;;;2.00;0.93;;;21.80;99.90;;;;;;5023241;28;20091;-70
2021/09/18 10:33:25;;;;;;;5.82;1.15;;;21.90;99.90;;;;;;5026038;28;20036;-70
2021/09/18 10:35:59;;;;;;;2.40;1.10;;;22.00;99.90;;;;;;5022913;28;20126;-70
2021/09/18 10:38:27;;;;;;;3.83;1.20;;;22.00;99.90;;;;;;5022965;28;20140;-69
2021/09/18 10:43:43;;;;;;;1.35;0.70;;;22.00;99.90;;;;;;5002487;28;20505;-62
2021/09/18 10:46:30;;;;;;;1.15;0.40;;;22.00;99.90;;;;;;5006335;28;20517;-62
2021/09/18 10:48:57;;;;;;;1.10;0.60;;;22.00;99.90;;;;;;5005024;28;20100;-62
2021/09/18 10:51:38;;;;;;;0.55;0.50;;;22.10;99.80;;;;;;5007154;28;20054;-62
2021/09/18 10:54:04;;;;;;;0.88;0.50;;;22.10;99.30;;;;;;4988018;28;20078;-63
2021/09/18 10:57:03;;;;;;;3.03;0.70;;;22.20;99.30;;;;;;4985761;28;20085;-64
2021/09/18 10:59:42;;;;;;;1.02;0.52;;;22.20;99.90;;;;;;4985986;28;20041;-62
2021/09/18 11:02:29;;;;;;;0.77;0.30;;;22.30;98.80;;;;;;4988590;28;20034;-70
2021/09/18 11:04:55;;;;;;;1.63;0.70;;;22.20;99.40;;;;;;4986240;28;20034;-61
2021/09/18 11:07:39;;;;;;;1.10;0.40;;;22.10;99.60;;;;;;4988351;28;20092;-61
2021/09/18 11:10:06;;;;;;;0.98;0.63;;;22.10;99.70;;;;;;4987186;28;20118;-63
2021/09/18 11:12:32;;;;;;;1.65;0.40;;;22.10;99.90;;;;;;4988460;28;20038;-64
2021/09/18 11:15:35;;;;;;;0.98;0.40;;;22.10;99.20;;;;;;4988854;28;20417;-65
2021/09/18 11:18:26;;;;;;;0.70;0.40;;;22.00;99.10;;;;;;4986884;28;20037;-63
2021/09/18 11:20:58;;;;;;;2.25;0.90;;;22.10;99.50;;;;;;4981496;28;20038;-62
2021/09/18 11:23:43;;;;;;;1.10;0.52;;;22.20;98.90;;;;;;4988964;28;20399;-62
2021/09/18 11:26:46;;;;;;;1.42;0.65;;;22.20;99.90;;;;;;4986089;28;20049;-63
2021/09/18 11:29:28;;;;;;;1.50;0.40;;;22.00;99.80;;;;;;4988311;28;20478;-62
2021/09/18 11:32:13;;;;;;;1.05;0.70;;;22.10;99.50;;;;;;4987130;28;20097;-63
2021/09/18 11:34:58;;;;;;;0.93;0.50;;;22.10;99.40;;;;;;4987392;28;20042;-61
2021/09/18 11:37:32;;;;;;;1.15;0.75;;;22.20;99.90;;;;;;4984357;28;20038;-64
2021/09/18 11:40:04;;;;;;;1.38;0.50;;;22.20;99.90;;;;;;4987522;28;20049;-65
2021/09/18 11:42:44;;;;;;;3.97;0.55;;;22.30;99.40;;;;;;4990185;28;20370;-63
2021/09/18 11:45:18;;;;;;;0.63;0.40;;;22.40;99.30;;;;;;4988944;28;20410;-62
2021/09/18 11:47:47;;;;;;;1.48;0.40;;;22.40;99.00;;;;;;4983706;28;20038;-62
2021/09/18 11:50:25;;;;;;;2.20;0.73;;;22.40;99.30;;;;;;4983909;28;20054;-64
2021/09/18 11:53:00;;;;;;;2.42;0.85;;;22.40;98.30;;;;;;4984426;28;20035;-62
2021/09/18 11:55:32;;;;;;;1.42;0.47;;;22.40;98.50;;;;;;4987771;28;20037;-61
2021/09/18 11:58:16;;;;;;;1.60;0.60;;;22.30;99.30;;;;;;4985543;28;20031;-61
2021/09/18 12:00:51;;;;;;;1.17;0.52;;;22.20;99.10;;;;;;4989165;28;20034;-62
2021/09/18 12:03:20;;;;;;;0.55;0.38;;;22.20;98.60;;;;;;4989845;28;20034;-62
2021/09/18 12:06:06;;;;;;;0.68;0.35;;;22.20;98.20;;;;;;4989471;28;20045;-64
2021/09/18 12:08:33;;;;;;;0.88;0.30;;;22.20;97.80;;;;;;4996254;28;20030;-62
2021/09/18 12:11:12;;;;;;;4.03;0.70;;;22.30;97.40;;;;;;4980002;28;20042;-61
2021/09/18 12:13:48;;;;;;;1.20;0.40;;;22.30;98.10;;;;;;4982068;28;20591;-61
2021/09/18 12:16:18;;;;;;;0.70;0.55;;;22.30;98.30;;;;;;4981529;28;20422;-62
2021/09/18 12:18:49;;;;;;;0.75;0.32;;;22.30;98.60;;;;;;5004252;28;20445;-62
2021/09/18 12:21:25;;;;;;;1.35;0.35;;;22.30;99.40;;;;;;5004662;28;20110;-62
2021/09/18 12:24:03;;;;;;;0.75;0.50;;;22.30;98.40;;;;;;5007123;28;20038;-61
2021/09/18 12:26:31;;;;;;;0.63;0.30;;;22.30;98.00;;;;;;5006932;28;20430;-62
2021/09/18 12:29:10;;;;;;;2.17;0.40;;;22.30;98.30;;;;;;5007544;28;20034;-62
2021/09/18 12:31:37;;;;;;;1.45;0.52;;;22.20;98.50;;;;;;5006993;28;20026;-62
2021/09/18 12:34:15;;;;;;;1.65;0.30;;;22.20;98.20;;;;;;5007694;28;20500;-62
2021/09/18 12:36:42;;;;;;;0.95;0.30;;;22.10;98.20;;;;;;5004559;28;20154;-61
2021/09/18 12:39:08;;;;;;;1.27;0.30;;;22.00;98.40;;;;;;5010849;28;20037;-62
2021/09/18 12:41:38;;;;;;;1.23;0.52;;;21.90;99.80;;;;;;5010457;28;20585;-63
2021/09/18 12:44:11;;;;;;;3.67;0.50;;;21.90;99.50;;;;;;5011126;28;20045;-61
2021/09/18 12:46:40;;;;;;;1.90;0.52;;;21.90;98.50;;;;;;5010787;28;20034;-62
2021/09/18 12:49:07;;;;;;;3.65;0.70;;;22.00;98.60;;;;;;5010869;28;20030;-63
2021/09/18 12:51:36;;;;;;;1.30;0.40;;;22.00;98.40;;;;;;5010007;28;20053;-64
2021/09/18 12:54:03;;;;;;;1.77;0.70;;;22.10;98.70;;;;;;5013606;28;20091;-63
2021/09/18 12:56:28;;;;;;;1.73;0.50;;;22.10;98.80;;;;;;5010273;28;20038;-62